John G — WDF2677 — position and weather

sailwx.info

Track history (hours):
 
Tides and Currents Weather Stations Pressure Air Temp Water Temp Dewpoint Dewpoint Depression Visibility Wind Speed Wind Dir Waves Ship Positions

John G

Owner: Marquette Transportation Company Offshore LLC, Jefferson, LA. More information available from US FCC via Universal Licensing System and Coast Guard Vessel Documentation Center.

Last reported at 2016-Feb-14 04:19 UTC. Time now 2016-Feb-14 20:59 UTC.
Position N 29°59' W 093°53'.

Length 24 m.

Type: Towing. MMSI: 367009680.

Date/timePositionNaut miles runAvg speedWind from/ knotsBaromVisibWave heightAir tempDewpointWater temp
2016-Feb-14 04:19N 29°59' W 093°53'1 1.6
2016-Feb-14 03:31N 29°59' W 093°54'0 0.0
2016-Feb-14 01:32N 29°59' W 093°54'38 2.9
2016-Feb-13 12:32N 29°34' W 094°27'34 1.9
2016-Feb-12 18:32N 29°53' W 093°55'9 4.1
2016-Feb-12 16:25N 30°01' W 093°60'0 0.0
2016-Feb-12 08:21N 30°01' W 093°59'0 0.0
2016-Feb-12 07:19N 30°01' W 093°59'0 0.0
2016-Feb-12 05:13N 30°01' W 093°59'8 4.5
2016-Feb-12 03:29N 29°58' W 093°51'6 6.9
2016-Feb-12 02:33N 29°52' W 093°56'5 4.4
2016-Feb-12 01:31N 29°49' W 093°59'50 4.4
2016-Feb-11 14:15N 29°22' W 094°48'12 6.7
2016-Feb-11 12:25N 29°33' W 094°54'6 7.3
2016-Feb-11 11:33N 29°38' W 094°58'8 6.2
2016-Feb-11 10:20N 29°44' W 095°03'3 3.4
2016-Feb-11 09:33N 29°45' W 095°06'0 0.1
2016-Feb-11 08:34N 29°45' W 095°06'0 0.1
2016-Feb-11 07:34N 29°45' W 095°06'0 0.0
2016-Feb-11 06:33N 29°45' W 095°06'0 0.0
2016-Feb-11 05:32N 29°45' W 095°06'0 0.0
2016-Feb-11 03:25N 29°45' W 095°06'0 0.0
2016-Feb-11 00:33N 29°45' W 095°06'0 0.0
2016-Feb-10 23:33N 29°45' W 095°06'0 0.0
2016-Feb-10 22:33N 29°45' W 095°06'0 0.0
2016-Feb-10 21:34N 29°45' W 095°06'0 0.0
2016-Feb-10 20:33N 29°45' W 095°06'0 0.0
2016-Feb-10 19:33N 29°45' W 095°06'0 0.0
2016-Feb-10 18:34N 29°45' W 095°06'0 0.0
2016-Feb-10 17:33N 29°45' W 095°06'0 0.0
2016-Feb-10 16:34N 29°45' W 095°06'0 0.0
2016-Feb-10 15:33N 29°45' W 095°06'0 0.1
2016-Feb-10 14:34N 29°45' W 095°06'0 0.0
2016-Feb-10 13:27N 29°45' W 095°06'0 0.0
2016-Feb-10 11:28N 29°45' W 095°06'1 0.1
2016-Feb-10 00:26N 29°46' W 095°07'2 0.1
2016-Feb-08 17:33N 29°47' W 095°05'2 1.5
2016-Feb-08 16:26N 29°46' W 095°06'2 1.8
2016-Feb-08 15:32N 29°47' W 095°05'  
2016-Feb-05 14:33N 29°42' W 094°08'5 5.4
2016-Feb-05 13:33N 29°46' W 094°03'14 0.7
2016-Feb-04 15:28N 29°56' W 093°52'2 1.0
2016-Feb-04 13:21N 29°58' W 093°51'0 0.0
2016-Feb-04 12:29N 29°58' W 093°51'0 0.0
2016-Feb-04 09:26N 29°58' W 093°51'0 0.0
2016-Feb-04 08:33N 29°58' W 093°51'0 0.0
2016-Feb-04 07:33N 29°58' W 093°51'0 0.0
2016-Feb-04 05:23N 29°58' W 093°51'  
Track history (hours):
 
Tides and Currents Weather Stations Pressure Air Temp Water Temp Dewpoint Dewpoint Depression Visibility Wind Speed Wind Dir Waves Ship Positions

John G

Owner: Marquette Transportation Company Offshore LLC, Jefferson, LA. More information available from US FCC via Universal Licensing System and Coast Guard Vessel Documentation Center.

Last reported at 2016-Feb-14 04:19 UTC. Time now 2016-Feb-14 20:59 UTC.
Position N 29°59' W 093°53'.

Length 24 m.

Type: Towing. MMSI: 367009680.

Date/timePositionNaut miles runAvg speedWind from/ knotsBaromVisibWave heightAir tempDewpointWater temp
2016-Feb-14 04:19N 29°59' W 093°53'1 1.6
2016-Feb-14 03:31N 29°59' W 093°54'0 0.0
2016-Feb-14 01:32N 29°59' W 093°54'38 2.9
2016-Feb-13 12:32N 29°34' W 094°27'34 1.9
2016-Feb-12 18:32N 29°53' W 093°55'9 4.1
2016-Feb-12 16:25N 30°01' W 093°60'0 0.0
2016-Feb-12 08:21N 30°01' W 093°59'0 0.0
2016-Feb-12 07:19N 30°01' W 093°59'0 0.0
2016-Feb-12 05:13N 30°01' W 093°59'8 4.5
2016-Feb-12 03:29N 29°58' W 093°51'6 6.9
2016-Feb-12 02:33N 29°52' W 093°56'5 4.4
2016-Feb-12 01:31N 29°49' W 093°59'50 4.4
2016-Feb-11 14:15N 29°22' W 094°48'12 6.7
2016-Feb-11 12:25N 29°33' W 094°54'6 7.3
2016-Feb-11 11:33N 29°38' W 094°58'8 6.2
2016-Feb-11 10:20N 29°44' W 095°03'3 3.4
2016-Feb-11 09:33N 29°45' W 095°06'0 0.1
2016-Feb-11 08:34N 29°45' W 095°06'0 0.1
2016-Feb-11 07:34N 29°45' W 095°06'0 0.0
2016-Feb-11 06:33N 29°45' W 095°06'0 0.0
2016-Feb-11 05:32N 29°45' W 095°06'0 0.0
2016-Feb-11 03:25N 29°45' W 095°06'0 0.0
2016-Feb-11 00:33N 29°45' W 095°06'0 0.0
2016-Feb-10 23:33N 29°45' W 095°06'0 0.0
2016-Feb-10 22:33N 29°45' W 095°06'0 0.0
2016-Feb-10 21:34N 29°45' W 095°06'0 0.0
2016-Feb-10 20:33N 29°45' W 095°06'0 0.0
2016-Feb-10 19:33N 29°45' W 095°06'0 0.0
2016-Feb-10 18:34N 29°45' W 095°06'0 0.0
2016-Feb-10 17:33N 29°45' W 095°06'0 0.0
2016-Feb-10 16:34N 29°45' W 095°06'0 0.0
2016-Feb-10 15:33N 29°45' W 095°06'0 0.1
2016-Feb-10 14:34N 29°45' W 095°06'0 0.0
2016-Feb-10 13:27N 29°45' W 095°06'0 0.0
2016-Feb-10 11:28N 29°45' W 095°06'1 0.1
2016-Feb-10 00:26N 29°46' W 095°07'2 0.1
2016-Feb-08 17:33N 29°47' W 095°05'2 1.5
2016-Feb-08 16:26N 29°46' W 095°06'2 1.8
2016-Feb-08 15:32N 29°47' W 095°05'  
2016-Feb-05 14:33N 29°42' W 094°08'5 5.4
2016-Feb-05 13:33N 29°46' W 094°03'14 0.7
2016-Feb-04 15:28N 29°56' W 093°52'2 1.0
2016-Feb-04 13:21N 29°58' W 093°51'0 0.0
2016-Feb-04 12:29N 29°58' W 093°51'0 0.0
2016-Feb-04 09:26N 29°58' W 093°51'0 0.0
2016-Feb-04 08:33N 29°58' W 093°51'0 0.0
2016-Feb-04 07:33N 29°58' W 093°51'0 0.0
2016-Feb-04 05:23N 29°58' W 093°51'  

Dump ship's entire track history